Time;durP1;ratioP1;P1;durP2;ratioP2;P2;SDS_P1;SDS_P2;PMS_P1;PMS_P2;Temp;Humidity;BMP_temperature;BMP_pressure;BME280_temperature;BME280_humidity;BME280_pressure;Samples;Min_cycle;Max_cycle;Signal;HPM_P1;HPM_P2
2022/03/16 15:56:55;;;;;;;21.85;10.48;;;15.10;72.00;;;;;;5085047;27;20893;-45
2022/03/16 16:01:33;;;;;;;19.80;10.57;;;14.90;72.10;;;;;;5105729;27;20299;-44
2022/03/16 16:03:58;;;;;;;18.30;9.90;;;14.80;73.20;;;;;;5106404;28;20031;-45
2022/03/16 16:06:26;;;;;;;19.42;10.80;;;15.00;72.60;;;;;;5103048;28;20024;-44
2022/03/16 16:08:51;;;;;;;22.30;10.35;;;14.90;72.50;;;;;;5106960;28;20034;-45
2022/03/16 16:11:18;;;;;;;17.80;10.80;;;14.80;72.90;;;;;;5105783;28;20020;-44
2022/03/16 16:13:44;;;;;;;17.58;10.20;;;14.60;74.20;;;;;;5106013;28;20043;-45
2022/03/16 16:16:13;;;;;;;17.73;9.45;;;14.50;74.10;;;;;;5105265;28;20051;-45
2022/03/16 16:18:39;;;;;;;21.80;11.55;;;14.40;74.30;;;;;;5115017;28;20015;-44
2022/03/16 16:21:05;;;;;;;17.75;11.23;;;14.20;74.70;;;;;;5120873;28;20028;-44
2022/03/16 16:23:32;;;;;;;19.58;11.02;;;14.00;75.20;;;;;;5106516;28;20126;-45
2022/03/16 16:25:58;;;;;;;20.35;10.98;;;13.80;75.90;;;;;;5105244;28;20441;-45
2022/03/16 16:28:24;;;;;;;27.30;11.57;;;13.70;76.70;;;;;;5104384;28;20451;-45
2022/03/16 16:30:51;;;;;;;22.90;11.23;;;13.60;76.50;;;;;;5104436;28;20488;-45
2022/03/16 16:33:17;;;;;;;20.63;11.63;;;13.50;77.00;;;;;;5104821;28;20031;-44
2022/03/16 16:35:43;;;;;;;23.55;11.75;;;13.40;77.70;;;;;;5112361;28;20027;-44
2022/03/16 16:38:11;;;;;;;22.15;10.98;;;13.30;78.30;;;;;;5104949;28;20644;-44
2022/03/16 16:40:37;;;;;;;24.83;12.43;;;13.20;79.00;;;;;;5105052;28;20020;-44
2022/03/16 16:43:15;;;;;;;21.10;10.65;;;13.00;79.20;;;;;;5105200;28;20020;-45
2022/03/16 16:45:54;;;;;;;22.40;13.18;;;13.00;79.90;;;;;;5103853;28;20016;-44
2022/03/16 16:48:25;;;;;;;18.83;11.52;;;12.90;80.40;;;;;;5106372;28;20051;-45
2022/03/16 16:50:54;;;;;;;19.75;11.93;;;12.80;81.20;;;;;;5103248;28;20475;-44
2022/03/16 16:53:24;;;;;;;22.65;12.52;;;12.70;81.90;;;;;;5104049;28;20028;-45
2022/03/16 16:55:51;;;;;;;19.65;11.20;;;12.50;82.90;;;;;;5100807;28;20103;-46
2022/03/16 16:58:17;;;;;;;23.13;12.25;;;12.40;84.00;;;;;;5112976;27;20110;-44
2022/03/16 17:00:43;;;;;;;21.88;12.20;;;12.30;85.20;;;;;;5104808;28;20293;-44
2022/03/16 17:03:10;;;;;;;23.08;13.05;;;12.20;85.20;;;;;;5103833;28;20459;-45
2022/03/16 17:05:36;;;;;;;16.13;10.52;;;12.10;88.00;;;;;;5105125;28;20429;-45
2022/03/16 17:08:04;;;;;;;18.33;11.38;;;11.90;90.30;;;;;;5104534;28;20031;-45
2022/03/16 17:10:31;;;;;;;18.10;11.30;;;11.80;89.80;;;;;;5103373;28;20557;-44
2022/03/16 17:12:56;;;;;;;20.15;12.25;;;11.80;90.10;;;;;;5091124;28;20056;-44
2022/03/16 17:15:23;;;;;;;24.40;13.07;;;11.70;90.60;;;;;;5091372;28;20063;-44
2022/03/16 17:17:51;;;;;;;22.17;11.80;;;11.60;90.70;;;;;;5090711;28;20028;-44
2022/03/16 17:20:18;;;;;;;26.60;11.88;;;11.60;91.00;;;;;;5090984;28;20373;-45
2022/03/16 17:22:48;;;;;;;22.35;11.98;;;11.50;92.30;;;;;;5091374;28;20243;-44
2022/03/16 17:25:14;;;;;;;22.63;11.77;;;11.30;93.70;;;;;;5091255;28;20028;-44
2022/03/16 17:27:42;;;;;;;22.42;12.75;;;11.20;94.50;;;;;;5100466;28;20016;-44
2022/03/16 17:30:08;;;;;;;23.65;12.50;;;11.10;94.30;;;;;;5111546;28;20019;-45
2022/03/16 17:32:34;;;;;;;20.27;12.27;;;11.10;94.10;;;;;;5111593;28;20518;-46
2022/03/16 17:35:00;;;;;;;18.75;11.68;;;11.00;95.10;;;;;;5103765;28;20028;-44
2022/03/16 17:37:25;;;;;;;20.67;12.32;;;10.90;95.70;;;;;;5098064;28;20024;-45
2022/03/16 17:39:51;;;;;;;20.17;11.93;;;10.80;95.40;;;;;;5110499;28;20074;-46
2022/03/16 17:47:45;;;;;;;20.73;12.93;;;10.60;96.90;;;;;;5108605;28;20027;-47
2022/03/16 17:50:10;;;;;;;21.17;12.13;;;10.50;98.90;;;;;;5109253;28;20080;-46
2022/03/16 17:52:36;;;;;;;19.80;12.50;;;10.30;99.10;;;;;;5109314;28;20061;-46
2022/03/16 17:55:01;;;;;;;22.13;12.90;;;10.30;99.90;;;;;;5110362;28;20035;-47
2022/03/16 17:57:27;;;;;;;23.33;13.05;;;10.20;99.90;;;;;;5110922;28;20035;-47
2022/03/16 17:59:52;;;;;;;24.83;13.63;;;10.20;99.90;;;;;;5109377;28;20458;-48
2022/03/16 18:02:18;;;;;;;22.30;12.88;;;10.10;99.90;;;;;;5109777;28;20041;-47
2022/03/16 18:04:44;;;;;;;24.52;13.30;;;10.10;99.90;;;;;;5106405;28;20016;-47
2022/03/16 18:07:10;;;;;;;18.33;12.18;;;10.10;99.90;;;;;;5098063;28;20069;-46
2022/03/16 18:12:58;;;;;;;22.58;11.70;;;10.00;99.90;;;;;;5099795;28;20091;-47
2022/03/16 18:15:09;;;;;;;18.70;12.05;;;9.90;99.90;;;;;;5110725;28;20042;-45
2022/03/16 18:17:35;;;;;;;25.58;13.20;;;9.80;99.90;;;;;;5103936;28;20020;-45
2022/03/16 18:20:01;;;;;;;20.67;12.77;;;9.70;99.90;;;;;;5089443;28;20415;-45
2022/03/16 18:22:29;;;;;;;26.33;12.82;;;9.60;99.90;;;;;;5089761;28;20040;-46
2022/03/16 18:24:55;;;;;;;22.10;11.90;;;9.60;99.90;;;;;;5088982;28;20022;-45
2022/03/16 18:27:21;;;;;;;21.70;12.77;;;9.60;99.90;;;;;;5089069;28;20472;-45
2022/03/16 18:29:48;;;;;;;21.52;12.02;;;9.50;99.90;;;;;;5090093;28;20119;-44
2022/03/16 18:32:13;;;;;;;19.92;11.75;;;9.50;99.90;;;;;;5090255;28;20499;-45
2022/03/16 18:34:39;;;;;;;18.38;11.02;;;9.50;99.90;;;;;;5097713;28;20084;-44
2022/03/16 18:37:05;;;;;;;21.30;11.98;;;9.50;99.90;;;;;;5102675;28;20028;-45
2022/03/16 18:39:31;;;;;;;20.80;11.45;;;9.50;99.90;;;;;;5110584;28;20024;-45
2022/03/16 18:41:56;;;;;;;17.02;10.77;;;9.40;99.90;;;;;;5110240;28;20161;-45
2022/03/16 18:44:22;;;;;;;21.23;10.93;;;9.40;99.90;;;;;;5110278;28;20114;-45
2022/03/16 18:46:48;;;;;;;20.83;11.05;;;9.40;99.90;;;;;;5109728;28;20016;-46
2022/03/16 18:49:14;;;;;;;20.17;11.50;;;9.40;99.90;;;;;;5109985;28;20526;-46
2022/03/16 18:52:12;;;;;;;20.33;10.50;;;9.40;99.90;;;;;;5088895;28;20380;-46
2022/03/16 18:54:32;;;;;;;19.65;10.90;;;9.40;99.90;;;;;;5087800;28;20044;-46
2022/03/16 18:56:57;;;;;;;22.73;12.85;;;9.40;99.90;;;;;;5088579;28;20623;-46
2022/03/16 18:59:23;;;;;;;22.85;11.30;;;9.30;99.90;;;;;;5089335;28;20040;-48
2022/03/16 19:01:52;;;;;;;25.70;12.10;;;9.30;99.90;;;;;;5089129;28;20520;-46
2022/03/16 19:04:18;;;;;;;21.15;11.15;;;9.30;99.90;;;;;;5091224;28;20024;-46
2022/03/16 19:06:43;;;;;;;20.38;11.45;;;9.40;99.90;;;;;;5091001;28;20030;-45
2022/03/16 19:09:11;;;;;;;17.13;11.27;;;9.30;99.90;;;;;;5088906;28;20024;-46
2022/03/16 19:14:23;;;;;;;18.60;11.48;;;9.40;99.90;;;;;;5089704;28;20499;-47
2022/03/16 19:16:48;;;;;;;22.38;11.55;;;9.30;99.90;;;;;;5088853;28;20016;-47
2022/03/16 19:19:16;;;;;;;21.50;11.40;;;9.40;99.90;;;;;;5089196;28;20028;-48
2022/03/16 19:21:42;;;;;;;21.33;11.40;;;9.40;99.90;;;;;;5089131;28;20104;-48
2022/03/16 19:24:07;;;;;;;21.77;10.77;;;9.30;99.90;;;;;;5089357;28;20099;-47
2022/03/16 19:26:35;;;;;;;20.30;11.57;;;9.20;99.90;;;;;;5089754;28;20502;-48
2022/03/16 19:29:01;;;;;;;22.23;11.43;;;9.20;99.90;;;;;;5093879;28;20020;-47
2022/03/16 19:31:28;;;;;;;21.42;11.55;;;9.20;99.90;;;;;;5091897;28;20030;-48
2022/03/16 19:33:53;;;;;;;22.40;11.13;;;9.20;99.90;;;;;;5089303;28;20032;-46
2022/03/16 19:36:19;;;;;;;21.20;12.07;;;9.10;99.90;;;;;;5089082;28;20026;-47
2022/03/16 19:38:45;;;;;;;21.70;11.57;;;9.10;99.90;;;;;;5097317;28;20032;-48
2022/03/16 19:41:10;;;;;;;22.17;12.02;;;9.00;99.90;;;;;;5089169;28;20403;-46
2022/03/16 19:43:37;;;;;;;23.70;12.63;;;9.00;99.90;;;;;;5089226;28;20034;-49
2022/03/16 19:46:05;;;;;;;20.90;12.60;;;9.00;99.90;;;;;;5088190;28;20027;-46
2022/03/16 19:48:30;;;;;;;22.60;12.15;;;8.90;99.90;;;;;;5088044;28;20496;-46
2022/03/16 19:50:57;;;;;;;22.88;12.43;;;9.00;99.90;;;;;;5090379;28;20051;-47
2022/03/16 19:53:23;;;;;;;23.08;12.88;;;8.90;99.90;;;;;;5105965;28;20092;-46
2022/03/16 19:55:49;;;;;;;21.40;12.88;;;8.80;99.90;;;;;;5109410;28;20099;-46
2022/03/16 19:58:15;;;;;;;22.77;12.10;;;8.70;99.90;;;;;;5108673;28;20119;-46
2022/03/16 20:00:40;;;;;;;19.38;11.98;;;8.70;99.90;;;;;;5107790;28;20077;-46
2022/03/16 20:03:07;;;;;;;24.17;12.60;;;8.70;99.90;;;;;;5109082;28;20099;-46
2022/03/16 20:05:32;;;;;;;24.17;12.80;;;8.70;99.90;;;;;;5097846;28;20122;-47
2022/03/16 20:07:58;;;;;;;20.70;12.63;;;8.60;99.90;;;;;;5088002;28;20042;-46
2022/03/16 20:10:23;;;;;;;24.52;13.50;;;8.60;99.90;;;;;;5088540;28;20157;-40
2022/03/16 20:12:49;;;;;;;26.45;13.25;;;8.60;99.90;;;;;;5088554;28;20085;-39
2022/03/16 20:15:15;;;;;;;26.48;12.90;;;8.50;99.90;;;;;;5088477;28;20532;-39
2022/03/16 20:17:41;;;;;;;25.73;13.50;;;8.50;99.90;;;;;;5087721;28;20024;-39
2022/03/16 20:20:07;;;;;;;27.52;13.80;;;8.50;99.90;;;;;;5094272;28;20103;-39
2022/03/16 20:22:33;;;;;;;22.48;12.27;;;8.50;99.90;;;;;;5100188;28;20031;-39
2022/03/16 20:24:58;;;;;;;26.05;13.40;;;8.50;99.90;;;;;;5090063;28;20020;-39
2022/03/16 20:27:25;;;;;;;23.95;13.82;;;8.50;99.90;;;;;;5087483;28;20026;-39
2022/03/16 20:29:51;;;;;;;24.58;13.63;;;8.60;99.90;;;;;;5086485;28;20028;-40
2022/03/16 20:32:23;;;;;;;28.55;14.52;;;8.50;99.90;;;;;;5088418;28;20031;-39
2022/03/16 20:34:52;;;;;;;30.60;15.25;;;8.60;99.90;;;;;;5087531;28;20028;-39
2022/03/16 20:37:21;;;;;;;27.38;14.30;;;8.50;99.90;;;;;;5094830;28;20546;-41
2022/03/16 20:39:47;;;;;;;27.88;14.77;;;8.50;99.90;;;;;;5106589;28;20472;-39
2022/03/16 20:42:13;;;;;;;35.92;15.85;;;8.50;99.90;;;;;;5086941;28;20273;-40
2022/03/16 20:44:38;;;;;;;25.45;13.90;;;8.50;99.90;;;;;;5088237;28;20043;-39
2022/03/16 20:47:04;;;;;;;32.65;15.38;;;8.40;99.90;;;;;;5089338;28;20027;-39
2022/03/16 20:49:30;;;;;;;26.15;14.95;;;8.40;99.90;;;;;;5092033;28;20536;-39
2022/03/16 20:51:55;;;;;;;27.50;14.38;;;8.40;99.90;;;;;;5091725;28;20030;-39
2022/03/16 20:54:22;;;;;;;30.77;14.93;;;8.40;99.90;;;;;;5091932;28;20036;-40
2022/03/16 20:56:47;;;;;;;30.10;15.45;;;8.40;99.90;;;;;;5090219;28;20452;-39
2022/03/16 21:01:56;;;;;;;29.50;15.32;;;8.40;99.90;;;;;;5092206;28;20552;-39
2022/03/16 21:04:25;;;;;;;26.75;14.80;;;8.30;99.90;;;;;;5092056;28;20032;-39
2022/03/16 21:06:50;;;;;;;25.13;15.18;;;8.30;99.90;;;;;;5096920;28;20020;-40
2022/03/16 21:09:16;;;;;;;27.17;14.95;;;8.20;99.90;;;;;;5107260;28;20369;-40
2022/03/16 21:11:44;;;;;;;24.55;15.02;;;8.20;99.90;;;;;;5111934;28;20245;-40
2022/03/16 21:14:10;;;;;;;26.95;16.13;;;8.20;99.90;;;;;;5110441;28;20031;-39
2022/03/16 21:16:36;;;;;;;28.30;15.02;;;8.20;99.90;;;;;;5110182;28;20019;-39
2022/03/16 21:19:02;;;;;;;32.40;17.25;;;8.20;99.90;;;;;;5109488;28;20411;-39
2022/03/16 21:21:30;;;;;;;27.98;16.45;;;8.20;99.90;;;;;;5109959;28;20023;-42
2022/03/16 21:24:01;;;;;;;27.67;15.02;;;8.10;99.90;;;;;;5108928;28;20068;-40
2022/03/16 21:26:29;;;;;;;32.63;16.88;;;8.10;99.90;;;;;;5110541;28;20095;-39
2022/03/16 21:28:55;;;;;;;29.42;17.38;;;8.00;99.90;;;;;;5111058;28;20027;-40
2022/03/16 21:31:21;;;;;;;36.78;17.20;;;8.00;99.90;;;;;;5111575;28;20637;-40
2022/03/16 21:33:48;;;;;;;30.08;17.42;;;8.00;99.90;;;;;;5111536;28;20490;-40
2022/03/16 21:36:14;;;;;;;31.92;17.42;;;7.90;99.90;;;;;;5097127;28;20384;-40
2022/03/16 21:38:39;;;;;;;32.55;17.90;;;7.90;99.90;;;;;;5101051;28;20027;-40
2022/03/16 21:43:55;;;;;;;33.80;17.77;;;7.90;99.90;;;;;;5108432;28;20094;-40
2022/03/16 21:46:24;;;;;;;34.88;19.48;;;7.90;99.90;;;;;;5099075;28;20099;-40
2022/03/16 21:48:53;;;;;;;35.35;19.90;;;7.80;99.90;;;;;;5070132;28;20024;-39
2022/03/16 21:53:49;;;;;;;32.40;19.98;;;7.80;99.90;;;;;;5070674;28;20077;-40
2022/03/16 21:56:16;;;;;;;34.97;20.65;;;7.80;99.90;;;;;;5070548;28;20020;-40
2022/03/16 21:58:43;;;;;;;38.83;21.70;;;7.80;99.90;;;;;;5069788;28;20098;-42
2022/03/16 22:01:10;;;;;;;36.75;21.77;;;7.80;99.90;;;;;;5070311;28;20379;-40
2022/03/16 22:03:37;;;;;;;37.03;20.42;;;7.80;99.90;;;;;;5070556;28;20017;-40
2022/03/16 22:06:03;;;;;;;38.22;20.50;;;7.80;99.90;;;;;;5070201;28;20035;-39
2022/03/16 22:08:29;;;;;;;40.22;23.58;;;7.80;99.90;;;;;;5086222;28;20020;-39
2022/03/16 22:10:54;;;;;;;40.13;23.48;;;7.80;99.90;;;;;;5089886;28;20038;-39
2022/03/16 22:13:20;;;;;;;42.30;23.33;;;7.90;99.90;;;;;;5090397;28;20032;-40
2022/03/16 22:15:47;;;;;;;41.53;23.38;;;7.80;99.90;;;;;;5101367;28;20442;-39
2022/03/16 22:18:13;;;;;;;42.65;24.95;;;7.90;99.90;;;;;;5092223;28;20034;-39
2022/03/16 22:23:23;;;;;;;42.08;23.60;;;7.80;99.90;;;;;;5090389;28;20077;-40
2022/03/16 22:25:49;;;;;;;44.70;25.13;;;7.90;99.90;;;;;;5090085;28;20055;-40
2022/03/16 22:28:15;;;;;;;45.38;26.52;;;7.90;99.90;;;;;;5089583;28;20024;-40
2022/03/16 22:30:41;;;;;;;49.85;26.65;;;7.90;99.90;;;;;;5088984;28;20046;-41
2022/03/16 22:33:06;;;;;;;44.50;25.33;;;7.90;99.90;;;;;;5089324;28;20099;-40
2022/03/16 22:35:32;;;;;;;51.28;27.45;;;7.80;99.90;;;;;;5089638;28;20028;-40
2022/03/16 22:37:58;;;;;;;46.50;26.23;;;7.80;99.90;;;;;;5091579;28;20028;-40
2022/03/16 22:40:25;;;;;;;45.65;27.35;;;7.80;99.90;;;;;;5091132;28;20054;-40
2022/03/16 22:42:50;;;;;;;47.58;28.45;;;7.80;99.90;;;;;;5089386;28;20036;-39
2022/03/16 22:45:16;;;;;;;52.00;27.48;;;7.90;99.90;;;;;;5089490;28;20042;-39
2022/03/16 22:47:42;;;;;;;48.85;28.02;;;7.90;99.90;;;;;;5088666;28;20897;-39
2022/03/16 22:50:08;;;;;;;50.47;28.20;;;7.90;99.90;;;;;;5086661;28;20024;-39
2022/03/16 22:52:34;;;;;;;50.95;28.73;;;7.90;99.90;;;;;;5088998;28;20031;-39
2022/03/16 22:55:02;;;;;;;49.17;28.17;;;7.90;99.90;;;;;;5089675;28;20032;-40
2022/03/16 22:57:28;;;;;;;48.92;27.73;;;7.90;99.90;;;;;;5089435;28;20044;-40
2022/03/16 22:59:54;;;;;;;51.95;29.15;;;7.90;99.90;;;;;;5089608;28;20063;-40
2022/03/16 23:02:19;;;;;;;54.55;30.45;;;7.90;99.90;;;;;;5088504;28;20438;-39
2022/03/16 23:04:45;;;;;;;51.28;29.10;;;7.90;99.90;;;;;;5089561;28;20420;-39
2022/03/16 23:07:12;;;;;;;49.90;28.73;;;7.90;99.90;;;;;;5092248;28;20484;-39
2022/03/16 23:09:37;;;;;;;53.92;30.10;;;7.90;99.90;;;;;;5105214;28;20055;-39
2022/03/16 23:12:03;;;;;;;55.63;29.63;;;7.90;99.90;;;;;;5094649;28;20326;-39
2022/03/16 23:14:28;;;;;;;47.92;27.95;;;7.80;99.90;;;;;;5088989;28;20032;-39
2022/03/16 23:16:54;;;;;;;57.45;31.08;;;7.80;99.90;;;;;;5088191;28;20503;-39
2022/03/16 23:19:20;;;;;;;53.72;29.65;;;7.80;99.90;;;;;;5089315;28;20099;-39
2022/03/16 23:21:45;;;;;;;53.50;30.17;;;7.90;99.90;;;;;;5088893;28;20900;-40
2022/03/16 23:24:11;;;;;;;53.83;29.77;;;7.80;99.90;;;;;;5089091;28;20024;-40
2022/03/16 23:26:36;;;;;;;58.35;31.42;;;7.80;99.90;;;;;;5088710;28;20028;-39
2022/03/16 23:29:03;;;;;;;57.80;30.95;;;7.80;99.90;;;;;;5088354;28;20023;-39
2022/03/16 23:31:28;;;;;;;52.15;30.38;;;7.80;99.90;;;;;;5089208;28;20472;-39
2022/03/16 23:33:54;;;;;;;54.25;30.52;;;7.80;99.90;;;;;;5089162;28;20032;-40
2022/03/16 23:36:20;;;;;;;54.50;32.03;;;7.70;99.90;;;;;;5088543;28;20067;-40
2022/03/16 23:38:46;;;;;;;58.58;33.25;;;7.60;99.90;;;;;;5099608;28;20019;-41
2022/03/16 23:41:12;;;;;;;58.70;31.50;;;7.60;99.90;;;;;;5107984;28;20023;-40
2022/03/16 23:43:42;;;;;;;57.70;31.90;;;7.50;99.90;;;;;;5109671;28;20077;-41
2022/03/16 23:46:09;;;;;;;56.60;32.17;;;7.50;99.90;;;;;;5109366;28;20403;-40
2022/03/16 23:48:35;;;;;;;54.88;30.58;;;7.50;99.90;;;;;;5108598;28;20253;-40
2022/03/16 23:51:01;;;;;;;63.80;35.20;;;7.40;99.90;;;;;;5109470;28;20031;-42
2022/03/16 23:53:26;;;;;;;57.97;33.50;;;7.40;99.90;;;;;;5109087;28;20122;-41
2022/03/16 23:55:52;;;;;;;56.75;32.63;;;7.40;99.90;;;;;;5109421;28;20094;-40
2022/03/16 23:58:18;;;;;;;59.78;33.25;;;7.30;99.90;;;;;;5108927;28;20027;-41
